createdAt,value
2019-04-06T00:01:27.820Z,74.43
2019-04-06T00:04:06.639Z,75.00
2019-04-06T00:06:43.450Z,75.35
2019-04-06T00:09:26.817Z,75.31
2019-04-06T00:12:02.060Z,75.19
2019-04-06T00:14:35.118Z,75.41
2019-04-06T00:17:07.915Z,75.40
2019-04-06T00:19:53.000Z,74.93
2019-04-06T00:22:23.795Z,75.46
2019-04-06T00:24:54.617Z,75.94
2019-04-06T00:27:42.242Z,75.93
2019-04-06T00:30:32.498Z,75.74
2019-04-06T00:33:04.982Z,75.90
2019-04-06T00:35:50.225Z,75.70
2019-04-06T00:38:25.535Z,74.96
2019-04-06T00:41:12.861Z,74.78
2019-04-06T00:43:43.790Z,75.71
2019-04-06T00:46:15.695Z,75.79
2019-04-06T00:48:46.659Z,75.39
2019-04-06T00:51:18.422Z,75.49
2019-04-06T00:53:49.242Z,75.91
2019-04-06T00:56:20.130Z,75.65
2019-04-06T00:58:54.687Z,75.51
2019-04-06T01:01:27.452Z,76.03
2019-04-06T01:03:59.348Z,76.11
2019-04-06T01:06:30.177Z,75.65
2019-04-06T01:09:01.672Z,75.42
2019-04-06T01:11:33.928Z,75.67
2019-04-06T01:14:04.840Z,76.18
2019-04-06T01:16:35.619Z,76.71
2019-04-06T01:19:11.753Z,76.35
2019-04-06T01:21:42.555Z,75.75
2019-04-06T01:24:13.467Z,75.37
2019-04-06T01:26:45.292Z,75.80
2019-04-06T01:29:18.106Z,75.48
2019-04-06T01:31:58.145Z,75.94
2019-04-06T01:34:30.061Z,75.17
2019-04-06T01:37:00.822Z,75.26
2019-04-06T01:39:33.786Z,75.16
2019-04-06T01:42:07.801Z,75.38
2019-04-06T01:44:38.721Z,75.49
2019-04-06T01:47:09.525Z,75.00
2019-04-06T01:49:46.246Z,74.94
2019-04-06T01:52:21.204Z,74.58
2019-04-06T01:54:52.040Z,75.07
2019-04-06T01:57:30.924Z,75.37
2019-04-06T02:00:02.845Z,75.04
2019-04-06T02:02:35.555Z,75.66
2019-04-06T02:05:07.023Z,75.72
2019-04-06T02:07:53.885Z,75.21
2019-04-06T02:10:30.535Z,75.30
2019-04-06T02:13:08.355Z,75.14
2019-04-06T02:15:57.712Z,75.27
2019-04-06T02:18:46.230Z,74.82
2019-04-06T02:21:17.072Z,75.87
2019-04-06T02:23:47.782Z,75.71
2019-04-06T02:26:29.669Z,76.29
2019-04-06T02:28:52.071Z,75.90
2019-04-06T02:31:45.178Z,75.62
2019-04-06T02:34:26.711Z,76.08
2019-04-06T02:36:59.234Z,76.73
2019-04-06T02:39:46.721Z,75.68
2019-04-06T02:42:22.033Z,75.86
2019-04-06T02:44:52.831Z,75.57
2019-04-06T02:47:24.683Z,76.26
2019-04-06T02:50:01.447Z,76.08
2019-04-06T02:52:36.718Z,76.32
2019-04-06T02:55:07.569Z,76.09
2019-04-06T02:57:38.443Z,76.30
2019-04-06T03:00:11.492Z,75.81
2019-04-06T03:02:44.341Z,75.22
2019-04-06T03:05:15.156Z,75.61
2019-04-06T03:07:45.995Z,75.70
2019-04-06T03:10:16.877Z,76.04
2019-04-06T03:12:47.745Z,75.39
2019-04-06T03:15:18.513Z,76.03
2019-04-06T03:17:52.720Z,75.27
2019-04-06T03:20:24.580Z,74.73
2019-04-06T03:22:56.302Z,75.54
2019-04-06T03:25:27.337Z,75.11
2019-04-06T03:27:58.654Z,76.09
2019-04-06T03:30:37.884Z,75.11
2019-04-06T03:33:09.964Z,75.30
2019-04-06T03:35:53.280Z,76.03
2019-04-06T03:38:44.637Z,75.96
2019-04-06T03:41:15.537Z,75.69
2019-04-06T03:43:48.665Z,75.70
2019-04-06T03:46:24.705Z,75.33
2019-04-06T03:48:55.687Z,74.89
2019-04-06T03:51:26.472Z,74.83
2019-04-06T03:53:59.163Z,74.93
2019-04-06T03:56:32.040Z,75.28
2019-04-06T03:59:03.007Z,75.37
2019-04-06T04:01:33.775Z,75.08
2019-04-06T04:04:16.624Z,75.60
2019-04-06T04:06:47.329Z,75.21
2019-04-06T04:09:20.267Z,75.20
2019-04-06T04:11:51.074Z,75.59
2019-04-06T04:14:21.927Z,75.94
2019-04-06T04:16:52.725Z,75.22
2019-04-06T04:19:24.585Z,75.25
2019-04-06T04:21:56.346Z,75.24
2019-04-06T04:24:36.172Z,74.23
2019-04-06T04:27:06.906Z,74.66
2019-04-06T04:29:44.735Z,75.77
2019-04-06T04:32:16.855Z,75.35
2019-04-06T04:34:47.742Z,75.41
2019-04-06T04:37:18.718Z,74.78
2019-04-06T04:39:50.511Z,75.33
2019-04-06T04:42:23.544Z,75.50
2019-04-06T04:45:01.020Z,75.29
2019-04-06T04:47:32.017Z,75.27
2019-04-06T04:50:03.889Z,75.25
2019-04-06T04:52:35.803Z,74.82
2019-04-06T04:55:08.401Z,74.82
2019-04-06T04:57:45.372Z,75.00
2019-04-06T05:00:26.442Z,75.47
2019-04-06T05:02:57.326Z,75.72
2019-04-06T05:05:28.135Z,75.27
2019-04-06T05:08:02.851Z,75.29
2019-04-06T05:10:33.640Z,74.88
2019-04-06T05:13:05.683Z,75.88
2019-04-06T05:16:09.368Z,76.37
2019-04-06T05:18:44.770Z,75.66
2019-04-06T05:21:16.110Z,75.67
2019-04-06T05:23:53.972Z,75.96
2019-04-06T05:26:36.852Z,75.56
2019-04-06T05:28:58.987Z,76.15
2019-04-06T05:31:30.046Z,76.10
2019-04-06T05:34:10.098Z,75.53
2019-04-06T05:36:40.933Z,76.42
2019-04-06T05:39:12.004Z,76.13
2019-04-06T05:41:42.788Z,75.65
2019-04-06T05:44:14.107Z,75.47
2019-04-06T05:46:45.070Z,76.34
2019-04-06T05:49:21.999Z,76.23
2019-04-06T05:51:55.992Z,76.22
2019-04-06T05:54:27.902Z,75.18
2019-04-06T05:56:59.047Z,75.32
2019-04-06T05:59:48.481Z,75.40
2019-04-06T06:02:19.376Z,74.91
2019-04-06T06:04:50.190Z,75.17
2019-04-06T06:07:20.993Z,75.33
2019-04-06T06:09:53.932Z,74.92
2019-04-06T06:12:25.737Z,74.74
2019-04-06T06:14:59.920Z,75.25
2019-04-06T06:17:32.583Z,74.51
2019-04-06T06:20:18.491Z,74.21
2019-04-06T06:23:00.610Z,74.85
2019-04-06T06:25:31.778Z,74.30
2019-04-06T06:28:13.511Z,75.11
2019-04-06T06:30:35.072Z,75.56
2019-04-06T06:33:05.937Z,75.30
2019-04-06T06:35:48.800Z,74.61
2019-04-06T06:38:19.745Z,74.26
2019-04-06T06:40:51.553Z,74.13
2019-04-06T06:43:22.448Z,73.64
2019-04-06T06:45:53.516Z,73.38
2019-04-06T06:48:24.521Z,73.65
2019-04-06T06:50:55.397Z,74.42
2019-04-06T06:53:26.292Z,73.72
2019-04-06T06:56:00.232Z,72.58
2019-04-06T06:58:31.268Z,72.63
2019-04-06T07:01:03.307Z,72.72
2019-04-06T07:03:40.896Z,73.38
2019-04-06T07:06:17.885Z,72.56
2019-04-06T07:08:49.035Z,73.75
2019-04-06T07:11:19.835Z,74.28
2019-04-06T07:13:52.751Z,74.43
2019-04-06T07:16:23.621Z,73.64
2019-04-06T07:18:54.423Z,73.97
2019-04-06T07:21:34.577Z,73.45
2019-04-06T07:24:05.376Z,72.89
2019-04-06T07:26:36.045Z,72.57
2019-04-06T07:29:06.904Z,71.78
2019-04-06T07:31:44.688Z,72.30
2019-04-06T07:34:15.439Z,72.44
2019-04-06T07:36:57.693Z,71.67
2019-04-06T07:39:39.584Z,70.18
2019-04-06T07:42:21.743Z,70.62
2019-04-06T07:44:52.379Z,70.75
2019-04-06T07:47:23.212Z,70.88
2019-04-06T07:49:53.972Z,70.54
2019-04-06T07:52:28.425Z,69.97
2019-04-06T07:55:00.327Z,70.13
2019-04-06T07:57:31.077Z,70.88
2019-04-06T08:00:01.783Z,70.41
2019-04-06T08:02:33.955Z,70.26
2019-04-06T08:05:27.859Z,70.00
2019-04-06T08:07:58.742Z,69.80
2019-04-06T08:10:29.460Z,68.52
2019-04-06T08:13:00.234Z,69.09
2019-04-06T08:15:37.049Z,67.84
2019-04-06T08:18:08.135Z,68.91
2019-04-06T08:20:38.888Z,69.22
2019-04-06T08:23:09.859Z,68.48
2019-04-06T08:25:40.491Z,67.80
2019-04-06T08:28:16.315Z,67.31
2019-04-06T08:30:47.191Z,66.74
2019-04-06T08:33:18.876Z,67.97
2019-04-06T08:35:56.622Z,66.61
2019-04-06T08:38:27.259Z,67.65
2019-04-06T08:40:58.088Z,67.57
2019-04-06T08:43:41.523Z,67.12
2019-04-06T08:46:12.315Z,66.99
2019-04-06T08:48:44.189Z,67.75
2019-04-06T08:51:14.954Z,67.30
2019-04-06T08:53:45.635Z,65.52
2019-04-06T08:56:17.576Z,65.93
2019-04-06T08:58:48.370Z,65.96
2019-04-06T09:01:20.528Z,66.48
2019-04-06T09:03:51.362Z,64.41
2019-04-06T09:06:25.316Z,65.53
2019-04-06T09:08:56.154Z,64.91
2019-04-06T09:11:26.880Z,65.29
2019-04-06T09:13:57.927Z,65.29
2019-04-06T09:16:28.784Z,64.00
2019-04-06T09:19:01.623Z,62.89
2019-04-06T09:21:32.369Z,63.72
2019-04-06T09:24:04.221Z,64.11
2019-04-06T09:26:36.059Z,63.01
2019-04-06T09:29:06.830Z,61.58
2019-04-06T09:31:38.413Z,61.87
2019-04-06T09:34:09.083Z,61.06
2019-04-06T09:36:39.967Z,61.60
2019-04-06T09:39:10.666Z,61.37
2019-04-06T09:41:48.733Z,60.00
2019-04-06T09:44:26.617Z,60.39
2019-04-06T09:47:05.224Z,60.76
2019-04-06T09:49:45.703Z,60.89
2019-04-06T09:52:33.768Z,60.30
2019-04-06T09:55:17.910Z,61.26
2019-04-06T09:57:55.964Z,60.82
2019-04-06T10:00:44.792Z,60.66
2019-04-06T10:03:37.916Z,59.75
2019-04-06T10:06:10.934Z,60.38
2019-04-06T10:08:49.717Z,60.14
2019-04-06T10:11:25.072Z,59.42
2019-04-06T10:14:00.053Z,58.92
2019-04-06T10:16:33.765Z,59.06
2019-04-06T10:19:16.093Z,58.47
2019-04-06T10:22:00.779Z,60.57
2019-04-06T10:24:45.325Z,60.63
2019-04-06T10:27:20.546Z,61.63
2019-04-06T10:30:18.013Z,62.59
2019-04-06T10:32:53.482Z,61.88
2019-04-06T10:35:26.867Z,62.15
2019-04-06T10:38:17.321Z,62.62
2019-04-06T10:40:56.812Z,62.00
2019-04-06T10:43:43.942Z,61.75
2019-04-06T10:46:34.946Z,61.67
2019-04-06T10:49:27.837Z,61.85
2019-04-06T10:52:16.327Z,60.86
2019-04-06T10:55:07.058Z,60.72
2019-04-06T10:57:55.493Z,60.29
2019-04-06T11:00:27.935Z,59.18
2019-04-06T11:03:00.334Z,58.91
2019-04-06T11:05:32.672Z,58.92
2019-04-06T11:08:14.444Z,59.35
2019-04-06T11:10:47.902Z,59.51
2019-04-06T11:13:26.247Z,58.77
2019-04-06T11:16:11.141Z,58.38
2019-04-06T11:18:59.920Z,58.30
2019-04-06T11:21:47.645Z,58.42
2019-04-06T11:24:36.205Z,58.56
2019-04-06T11:27:13.480Z,58.88
2019-04-06T11:30:11.972Z,59.11
2019-04-06T11:32:34.354Z,58.47
2019-04-06T11:35:09.937Z,58.78
2019-04-06T11:37:42.426Z,59.98
2019-04-06T11:40:26.766Z,59.99
2019-04-06T11:43:00.135Z,60.27
2019-04-06T11:45:35.675Z,59.38
2019-04-06T11:48:26.445Z,59.31
2019-04-06T11:50:58.706Z,58.93
2019-04-06T11:53:47.440Z,57.71
2019-04-06T11:56:31.690Z,57.83
2019-04-06T11:59:20.679Z,58.24
2019-04-06T12:02:11.373Z,58.30
2019-04-06T12:04:47.409Z,58.70
2019-04-06T12:07:22.640Z,57.86
2019-04-06T12:09:55.094Z,57.23
2019-04-06T12:12:33.778Z,57.21
2019-04-06T12:15:06.386Z,56.95
2019-04-06T12:17:42.702Z,56.88
2019-04-06T12:20:27.165Z,56.96
2019-04-06T12:23:16.756Z,57.07
2019-04-06T12:26:05.412Z,56.55
2019-04-06T12:28:56.389Z,56.65
2019-04-06T12:31:34.806Z,56.08
2019-04-06T12:34:13.414Z,57.01
2019-04-06T12:36:51.546Z,57.46
2019-04-06T12:39:32.942Z,56.83
2019-04-06T12:42:05.331Z,56.83
2019-04-06T12:45:03.167Z,56.48
2019-04-06T12:47:38.723Z,57.08
2019-04-06T12:50:27.284Z,56.92
2019-04-06T12:53:15.829Z,56.34
2019-04-06T12:55:48.527Z,55.69
2019-04-06T12:58:23.742Z,55.74
2019-04-06T13:01:01.739Z,54.85
2019-04-06T13:03:43.941Z,55.15
2019-04-06T13:06:24.368Z,55.13
2019-04-06T13:09:14.753Z,55.06
2019-04-06T13:12:12.688Z,55.96
2019-04-06T13:15:05.458Z,55.83
2019-04-06T13:17:37.781Z,56.05
2019-04-06T13:20:25.525Z,54.63
2019-04-06T13:23:11.066Z,54.77
2019-04-06T13:25:58.573Z,54.79
2019-04-06T13:28:34.429Z,55.20
2019-04-06T13:31:16.607Z,55.47
2019-04-06T13:33:51.108Z,55.31
2019-04-06T13:37:04.161Z,54.99
2019-04-06T13:39:43.140Z,54.48
2019-04-06T13:42:16.523Z,54.46
2019-04-06T13:44:54.767Z,53.87
2019-04-06T13:47:43.435Z,53.72
2019-04-06T13:50:18.780Z,54.17
2019-04-06T13:53:03.366Z,54.02
2019-04-06T13:55:52.386Z,54.26
2019-04-06T13:58:33.911Z,53.48
2019-04-06T14:01:14.485Z,53.91
2019-04-06T14:03:40.272Z,52.21
2019-04-06T14:06:31.426Z,53.19
2019-04-06T14:09:17.048Z,52.21
2019-04-06T14:11:58.448Z,52.06
2019-04-06T14:14:37.965Z,51.37
2019-04-06T14:17:15.652Z,51.51
2019-04-06T14:19:47.946Z,52.10
2019-04-06T14:22:44.646Z,52.51
2019-04-06T14:25:17.018Z,53.04
2019-04-06T14:27:55.318Z,53.34
2019-04-06T14:30:33.926Z,52.62
2019-04-06T14:33:09.447Z,54.19
2019-04-06T14:35:58.165Z,53.44
2019-04-06T14:38:39.841Z,51.29
2019-04-06T14:41:16.726Z,51.95
2019-04-06T14:44:06.519Z,52.36
2019-04-06T14:46:45.123Z,51.72
2019-04-06T14:49:35.558Z,51.25
2019-04-06T14:52:07.979Z,52.50
2019-04-06T14:54:55.611Z,51.70
2019-04-06T14:57:29.603Z,51.19
2019-04-06T15:00:04.680Z,51.56
2019-04-06T15:02:47.667Z,51.47
2019-04-06T15:05:36.497Z,51.10
2019-04-06T15:08:25.994Z,52.07
2019-04-06T15:10:58.380Z,51.78
2019-04-06T15:13:31.902Z,50.14
2019-04-06T15:16:07.603Z,49.25
2019-04-06T15:18:52.263Z,49.68
2019-04-06T15:21:43.424Z,49.49
2019-04-06T15:24:30.813Z,49.97
2019-04-06T15:27:19.171Z,49.88
2019-04-06T15:29:56.401Z,49.69
2019-04-06T15:32:45.177Z,48.89
2019-04-06T15:35:33.597Z,50.05
2019-04-06T15:38:22.668Z,50.39
2019-04-06T15:40:55.076Z,49.54
2019-04-06T15:43:35.549Z,50.19
2019-04-06T15:46:34.697Z,49.15
2019-04-06T15:49:26.554Z,49.27
2019-04-06T15:52:09.640Z,48.02
2019-04-06T15:54:35.727Z,48.29
2019-04-06T15:57:09.153Z,48.89
2019-04-06T15:59:42.415Z,49.59
2019-04-06T16:02:14.724Z,48.94
2019-04-06T16:04:56.283Z,48.61
2019-04-06T16:07:38.152Z,49.50
2019-04-06T16:10:19.722Z,48.41
2019-04-06T16:12:56.101Z,48.79
2019-04-06T16:15:45.268Z,48.52
2019-04-06T16:18:27.677Z,48.55
2019-04-06T16:21:18.094Z,48.17
2019-04-06T16:24:08.322Z,48.48
2019-04-06T16:26:41.180Z,48.84
2019-04-06T16:29:16.126Z,49.09
2019-04-06T16:32:11.522Z,50.27
2019-04-06T16:34:58.045Z,50.31
2019-04-06T16:37:33.211Z,49.32
2019-04-06T16:40:14.792Z,49.26
2019-04-06T16:42:47.330Z,49.25
2019-04-06T16:45:31.566Z,49.79
2019-04-06T16:48:05.405Z,50.46
2019-04-06T16:50:53.948Z,49.83
2019-04-06T16:53:32.255Z,49.82
2019-04-06T16:56:13.585Z,50.33
2019-04-06T16:58:49.118Z,51.30
2019-04-06T17:01:34.226Z,51.81
2019-04-06T17:04:20.456Z,50.93
2019-04-06T17:07:01.899Z,52.43
2019-04-06T17:09:40.073Z,53.78
2019-04-06T17:12:15.410Z,53.05
2019-04-06T17:15:05.249Z,53.49
2019-04-06T17:17:41.872Z,52.66
2019-04-06T17:20:14.300Z,52.93
2019-04-06T17:22:53.336Z,53.05
2019-04-06T17:25:27.810Z,53.48
2019-04-06T17:28:14.020Z,53.90
2019-04-06T17:30:49.598Z,54.50
2019-04-06T17:33:38.840Z,54.90
2019-04-06T17:36:11.400Z,55.69
2019-04-06T17:38:49.536Z,56.18
2019-04-06T17:41:22.891Z,56.85
2019-04-06T17:43:57.818Z,56.72
2019-04-06T17:46:39.549Z,57.25
2019-04-06T17:49:36.007Z,57.14
2019-04-06T17:55:10.655Z,58.58
2019-04-06T17:57:52.336Z,58.88
2019-04-06T18:00:40.967Z,59.38
2019-04-06T18:03:13.489Z,59.83
2019-04-06T18:06:03.264Z,60.64
2019-04-06T18:08:52.231Z,60.66
2019-04-06T18:11:40.143Z,61.37
2019-04-06T18:14:14.631Z,61.53
2019-04-06T18:17:03.021Z,62.00
2019-04-06T18:19:40.740Z,62.23
2019-04-06T18:22:12.377Z,62.32
2019-04-06T18:24:48.224Z,62.88
2019-04-06T18:27:20.549Z,62.93
2019-04-06T18:29:55.631Z,63.47
2019-04-06T18:32:43.830Z,63.38
2019-04-06T18:35:25.651Z,63.77
2019-04-06T18:38:13.621Z,64.40
2019-04-06T18:40:56.037Z,64.73
2019-04-06T18:43:30.523Z,65.38
2019-04-06T18:46:15.827Z,65.74
2019-04-06T18:48:49.555Z,65.99
2019-04-06T18:51:20.756Z,65.84
2019-04-06T18:54:01.616Z,66.28
2019-04-06T18:56:36.659Z,66.89
2019-04-06T18:59:07.954Z,66.94
2019-04-06T19:01:43.860Z,67.13
2019-04-06T19:04:15.749Z,67.01
2019-04-06T19:07:02.739Z,67.45
2019-04-06T19:09:35.104Z,67.49
2019-04-06T19:12:12.079Z,67.79
2019-04-06T19:14:53.267Z,68.35
2019-04-06T19:17:24.207Z,68.30
2019-04-06T19:19:55.514Z,68.33
2019-04-06T19:22:28.411Z,68.34
2019-04-06T19:25:01.202Z,68.35
2019-04-06T19:27:32.263Z,68.91
2019-04-06T19:30:07.727Z,69.03
2019-04-06T19:32:39.012Z,68.91
2019-04-06T19:35:16.995Z,69.26
2019-04-06T19:37:51.971Z,69.62
2019-04-06T19:40:22.937Z,69.28
2019-04-06T19:42:53.822Z,69.52
2019-04-06T19:45:24.938Z,70.17
2019-04-06T19:47:59.424Z,70.01
2019-04-06T19:50:31.487Z,70.08
2019-04-06T19:53:02.355Z,70.06
2019-04-06T19:55:34.549Z,70.37
2019-04-06T19:58:06.367Z,70.43
2019-04-06T20:00:41.602Z,70.69
2019-04-06T20:03:36.776Z,70.85
2019-04-06T20:06:06.675Z,70.93
2019-04-06T20:08:50.163Z,71.25
2019-04-06T20:11:21.098Z,71.23
2019-04-06T20:13:58.998Z,71.00
2019-04-06T20:16:31.169Z,71.30
2019-04-06T20:19:02.242Z,71.32
2019-04-06T20:21:36.434Z,71.73
2019-04-06T20:24:19.656Z,71.85
2019-04-06T20:26:51.071Z,71.89
2019-04-06T20:29:23.086Z,71.79
2019-04-06T20:31:53.750Z,72.31
2019-04-06T20:34:29.645Z,72.53
2019-04-06T20:37:03.793Z,72.47
2019-04-06T20:39:41.348Z,72.48
2019-04-06T20:42:12.300Z,72.40
2019-04-06T20:44:44.084Z,72.54
2019-04-06T20:47:14.787Z,72.68
2019-04-06T20:49:48.969Z,72.64
2019-04-06T20:52:19.906Z,72.70
2019-04-06T20:54:53.798Z,72.80
2019-04-06T20:57:24.423Z,72.89
2019-04-06T20:59:59.530Z,72.94
2019-04-06T21:02:39.304Z,72.89
2019-04-06T21:05:33.045Z,72.83
2019-04-06T21:08:09.470Z,73.12
2019-04-06T21:10:40.753Z,73.09
2019-04-06T21:13:11.612Z,73.26
2019-04-06T21:15:43.060Z,73.13
2019-04-06T21:18:14.599Z,73.30
2019-04-06T21:20:55.479Z,73.41
2019-04-06T21:23:26.356Z,73.39
2019-04-06T21:25:58.454Z,73.18
2019-04-06T21:28:29.935Z,73.61
2019-04-06T21:31:00.620Z,73.63
2019-04-06T21:33:41.384Z,73.67
2019-04-06T21:36:21.756Z,74.25
2019-04-06T21:38:52.551Z,73.88
2019-04-06T21:41:23.280Z,73.77
2019-04-06T21:43:54.598Z,73.95
2019-04-06T21:46:25.626Z,73.91
2019-04-06T21:48:58.745Z,73.72
2019-04-06T21:51:29.646Z,74.08
2019-04-06T21:54:03.087Z,73.97
2019-04-06T21:56:34.205Z,74.01
2019-04-06T21:59:05.362Z,73.96
2019-04-06T22:01:48.867Z,73.88
2019-04-06T22:04:25.257Z,74.05
2019-04-06T22:06:52.903Z,74.42
2019-04-06T22:09:24.247Z,74.29
2019-04-06T22:11:55.845Z,74.24
2019-04-06T22:14:26.884Z,74.35
2019-04-06T22:16:58.375Z,74.27
2019-04-06T22:19:30.417Z,74.31
2019-04-06T22:22:02.175Z,74.55
2019-04-06T22:24:32.819Z,74.58
2019-04-06T22:27:03.961Z,74.97
2019-04-06T22:30:21.161Z,74.92
2019-04-06T22:32:52.408Z,74.76
2019-04-06T22:35:23.219Z,74.81
2019-04-06T22:37:55.358Z,74.69
2019-04-06T22:40:26.345Z,74.93
2019-04-06T22:43:08.837Z,74.80
2019-04-06T22:45:56.474Z,74.80
2019-04-06T22:48:28.302Z,74.80
2019-04-06T22:50:59.056Z,74.99
2019-04-06T22:53:36.818Z,74.86
2019-04-06T22:56:07.740Z,74.70
2019-04-06T22:58:38.498Z,74.76
2019-04-06T23:01:11.859Z,75.05
2019-04-06T23:03:50.478Z,75.27
2019-04-06T23:06:35.788Z,75.11
2019-04-06T23:09:11.404Z,75.17
2019-04-06T23:11:42.016Z,75.32
2019-04-06T23:14:12.684Z,75.05
2019-04-06T23:16:43.742Z,75.46
2019-04-06T23:19:15.439Z,75.38
2019-04-06T23:21:46.597Z,75.24
2019-04-06T23:24:20.395Z,75.34
2019-04-06T23:26:51.521Z,75.21
2019-04-06T23:29:23.263Z,75.24
2019-04-06T23:31:56.021Z,74.91
2019-04-06T23:34:30.586Z,75.02
2019-04-06T23:37:01.086Z,75.10
2019-04-06T23:39:32.112Z,75.10
2019-04-06T23:42:08.571Z,75.01
2019-04-06T23:44:39.753Z,75.18
2019-04-06T23:47:10.516Z,74.83
2019-04-06T23:49:41.784Z,74.75
2019-04-06T23:52:12.561Z,74.81
2019-04-06T23:54:50.347Z,74.93
2019-04-06T23:57:20.958Z,74.66
2019-04-06T23:59:51.589Z,74.72
